LFST 210400Z AUTO 33005KT 310V010 9999 BKN056 OVC066 02/M02 Q1032 NOSIG

ElémentsDécodage
LFST Station météo située sur l'aérodrome de STRASBOURG Entzheim
210400Z émis le 21 du mois à 04h00 UTC
AUTO Bulletin édité par un automate
33005KT vent du 330°, 05 noeuds
310V010 vent de direction variable entre 310° et 010°
9999 visibilité horizontale supérieure à 10 Km
BKN056 nuages morcelés (5/8 à 7/8) à 5600 pieds
OVC066 couverture nuageuse totale (8/8) à 6600 pieds
02/M02 température 02°C, point de rosée -02°C
 soit une humidité relative de 75%
Q1032 la pression au niveau de la mer (QNH) est de 1032 hPa
NOSIG Pas de changement significatif prévu au cours des deux heures suivant l'heure de l'observation